< < Back
Terminal Aerodrome Forecast


Current Version              Previous Versions:   1  2  3  4  5  6  7  8  9  

Terminal Aerodrome Forecast

861
FTUS42 KFFC 210636 AAA
TAFATL
TAF AMD
KATL 210636Z 2107/2212 09007KT 6SM BR OVC010
     FM210800 05004KT 4SM BR OVC008
     FM211000 06004KT 2SM BR OVC005
     FM211400 07005KT 4SM BR BKN007 OVC015
     FM211800 08007KT P6SM OVC015
     FM220400 09005KT 6SM BR OVC008
     FM220900 07008KT 5SM BR OVC004=



Latest METAR

945
SAUS70 KWBC 210700 RRS
MTRATL
METAR KATL 210952Z 08006KT 4SM BR BKN006 OVC013 08/06 A3019 RMK AO2
SLP225 T00830061


USA.gov is the U.S. government's official web portal to all federal, state and local government web resources and services.